Time;durP1;ratioP1;P1;durP2;ratioP2;P2;SDS_P1;SDS_P2;PMS_P1;PMS_P2;Temp;Humidity;BMP_temperature;BMP_pressure;BME280_temperature;BME280_humidity;BME280_pressure;Samples;Min_cycle;Max_cycle;Signal;HPM_P1;HPM_P2
2023/10/30 00:01:47;;;;;;;12.10;6.60;;;;;;;0.50;100.00;100759.00;5073233;28;20060;-63
2023/10/30 00:04:14;;;;;;;11.73;6.67;;;;;;;0.34;100.00;100737.38;5072966;28;20463;-63
2023/10/30 00:06:39;;;;;;;8.77;7.03;;;;;;;0.52;100.00;100763.22;5073092;28;20710;-63
2023/10/30 00:09:05;;;;;;;10.17;6.13;;;;;;;0.52;100.00;100765.00;5073006;28;20305;-65
2023/10/30 00:11:30;;;;;;;7.43;5.50;;;;;;;0.73;100.00;100781.97;5072788;28;20451;-65
2023/10/30 00:13:56;;;;;;;7.80;5.60;;;;;;;0.66;100.00;100764.13;5072711;28;20454;-65
2023/10/30 00:16:21;;;;;;;7.17;5.63;;;;;;;0.82;100.00;100791.84;5071717;28;20086;-65
2023/10/30 00:18:47;;;;;;;7.90;5.37;;;;;;;0.83;100.00;100792.69;5072700;28;20036;-62
2023/10/30 00:21:13;;;;;;;7.17;4.93;;;;;;;0.90;100.00;100799.22;5072702;28;20044;-63
2023/10/30 00:23:39;;;;;;;9.67;4.77;;;;;;;0.86;100.00;100793.31;5072629;28;20658;-63
2023/10/30 00:26:05;;;;;;;7.10;4.93;;;;;;;0.85;100.00;100799.50;5072508;28;20123;-64
2023/10/30 00:28:31;;;;;;;6.63;4.93;;;;;;;0.69;100.00;100783.09;5072375;28;20044;-65
2023/10/30 00:30:57;;;;;;;6.30;5.17;;;;;;;0.66;100.00;100764.97;5072539;28;20671;-62
2023/10/30 00:33:22;;;;;;;6.23;5.00;;;;;;;0.91;100.00;100793.03;5073052;28;20037;-63
2023/10/30 00:35:48;;;;;;;5.57;4.70;;;;;;;0.96;100.00;100787.50;5072503;28;20051;-64
2023/10/30 00:38:13;;;;;;;8.37;5.10;;;;;;;0.95;100.00;100775.31;5072299;28;20507;-65
2023/10/30 00:40:39;;;;;;;7.87;5.13;;;;;;;1.11;100.00;100791.72;5072258;28;20491;-64
2023/10/30 00:43:04;;;;;;;7.23;4.90;;;;;;;1.08;100.00;100779.66;5071265;28;20040;-64
2023/10/30 00:45:30;;;;;;;6.03;4.50;;;;;;;1.15;100.00;100793.19;5072271;28;20443;-64
2023/10/30 00:47:56;;;;;;;6.90;5.17;;;;;;;1.16;100.00;100779.16;5072266;28;20124;-64
2023/10/30 00:50:21;;;;;;;5.40;4.70;;;;;;;0.98;100.00;100759.38;5072358;28;20479;-65
2023/10/30 00:52:47;;;;;;;8.73;4.20;;;;;;;1.02;100.00;100782.69;5072096;28;20099;-64
2023/10/30 00:55:13;;;;;;;7.57;4.83;;;;;;;0.79;100.00;100759.75;5072289;28;20036;-63
2023/10/30 00:57:39;;;;;;;7.73;5.10;;;;;;;0.70;100.00;100753.31;5071892;28;20028;-65
2023/10/30 01:00:05;;;;;;;7.83;5.97;;;;;;;0.78;100.00;100772.00;5071853;28;20062;-63
2023/10/30 01:02:31;;;;;;;5.77;5.07;;;;;;;0.52;100.00;100730.91;5072045;28;20506;-64
2023/10/30 01:04:57;;;;;;;7.50;4.97;;;;;;;0.52;100.00;100733.53;5071938;28;20286;-63
2023/10/30 01:07:23;;;;;;;6.30;4.27;;;;;;;0.46;100.00;100721.69;5072363;28;20115;-62
2023/10/30 01:09:49;;;;;;;7.17;4.97;;;;;;;0.53;100.00;100729.97;5071182;28;20411;-62
2023/10/30 01:12:15;;;;;;;9.13;6.20;;;;;;;0.66;100.00;100744.00;5071696;28;20033;-66
2023/10/30 01:14:40;;;;;;;6.93;5.07;;;;;;;0.71;100.00;100730.56;5071848;28;20274;-65
2023/10/30 01:17:06;;;;;;;9.17;5.13;;;;;;;0.84;100.00;100742.75;5070374;28;20043;-65
2023/10/30 01:19:31;;;;;;;6.60;4.97;;;;;;;0.87;100.00;100724.25;5071645;28;20036;-65
2023/10/30 01:21:57;;;;;;;6.63;5.10;;;;;;;0.80;100.00;100730.81;5070457;28;20047;-63
2023/10/30 01:24:22;;;;;;;6.80;5.10;;;;;;;0.73;100.00;100724.28;5071936;28;20407;-64
2023/10/30 01:26:48;;;;;;;7.87;5.20;;;;;;;0.52;100.00;100683.75;5072019;28;20510;-64
2023/10/30 01:29:14;;;;;;;8.37;5.50;;;;;;;0.57;100.00;100692.16;5072229;28;20045;-63
2023/10/30 01:31:39;;;;;;;6.07;5.47;;;;;;;0.73;100.00;100719.06;5071538;28;20090;-62
2023/10/30 01:34:05;;;;;;;6.23;4.60;;;;;;;0.76;100.00;100723.25;5071318;28;20037;-64
2023/10/30 01:36:31;;;;;;;6.00;4.90;;;;;;;0.62;100.00;100684.84;5071239;28;20407;-63
2023/10/30 01:38:57;;;;;;;8.17;4.70;;;;;;;0.70;100.00;100707.94;5069916;28;20067;-64
2023/10/30 01:41:23;;;;;;;10.07;5.10;;;;;;;0.73;100.00;100724.28;5069821;28;20407;-63
2023/10/30 01:43:49;;;;;;;6.40;4.70;;;;;;;0.52;100.00;100695.06;5071708;28;20273;-63
2023/10/30 01:46:15;;;;;;;5.03;4.27;;;;;;;0.65;100.00;100708.25;5071721;28;20039;-64
2023/10/30 01:48:41;;;;;;;6.27;4.90;;;;;;;0.57;100.00;100703.47;5071338;28;20036;-62
2023/10/30 01:51:07;;;;;;;9.13;6.30;;;;;;;0.64;100.00;100714.41;5071087;28;20119;-63
2023/10/30 01:53:34;;;;;;;5.67;4.67;;;;;;;0.68;100.00;100721.13;5069834;28;20262;-64
2023/10/30 01:56:02;;;;;;;6.97;5.27;;;;;;;0.73;100.00;100713.81;5070864;28;20270;-64
2023/10/30 01:58:29;;;;;;;5.33;4.83;;;;;;;0.84;100.00;100715.72;5071079;28;20267;-63
2023/10/30 02:00:55;;;;;;;5.60;4.97;;;;;;;0.96;100.00;100711.44;5070828;28;20377;-63
2023/10/30 02:03:21;;;;;;;6.80;5.27;;;;;;;0.88;100.00;100691.00;5070875;28;20322;-64
2023/10/30 02:05:46;;;;;;;6.53;4.80;;;;;;;1.01;100.00;100707.56;5071040;28;20357;-62
2023/10/30 02:08:13;;;;;;;6.73;4.47;;;;;;;0.99;100.00;100703.38;5070978;28;20043;-63
2023/10/30 02:10:39;;;;;;;7.10;4.87;;;;;;;0.92;100.00;100701.16;5069621;28;20059;-64
2023/10/30 02:13:07;;;;;;;7.73;5.07;;;;;;;0.70;100.00;100677.31;5071068;28;20350;-63
2023/10/30 02:15:33;;;;;;;8.00;5.18;;;;;;;0.83;100.00;100693.91;5070800;28;20032;-63
2023/10/30 02:17:59;;;;;;;7.93;4.93;;;;;;;0.88;100.00;100697.06;5070963;28;20048;-64
2023/10/30 02:20:46;;;;;;;8.17;5.03;;;;;;;0.85;100.00;100684.16;5069840;28;20048;-65
2023/10/30 02:23:12;;;;;;;7.10;4.80;;;;;;;0.77;100.00;100675.97;5073440;28;20266;-64
2023/10/30 02:25:37;;;;;;;7.20;5.67;;;;;;;0.84;100.00;100681.63;5075048;28;20270;-64
2023/10/30 02:28:03;;;;;;;6.20;4.83;;;;;;;0.52;100.00;100639.22;5075044;28;20534;-63
2023/10/30 02:30:29;;;;;;;8.07;5.10;;;;;;;0.70;100.00;100672.06;5074860;28;20483;-64
2023/10/30 02:32:54;;;;;;;6.00;4.53;;;;;;;0.73;100.00;100681.50;5074595;28;20541;-62
2023/10/30 02:35:20;;;;;;;10.07;5.27;;;;;;;0.74;100.00;100676.16;5074795;28;20062;-62
2023/10/30 02:37:46;;;;;;;7.20;5.30;;;;;;;0.83;100.00;100680.78;5074598;28;20071;-64
2023/10/30 02:40:13;;;;;;;5.80;4.23;;;;;;;0.79;100.00;100645.25;5074652;28;20059;-64
2023/10/30 02:42:39;;;;;;;6.53;5.33;;;;;;;0.85;100.00;100639.56;5075223;28;20277;-63
2023/10/30 02:45:06;;;;;;;6.97;4.30;;;;;;;1.00;100.00;100652.59;5074663;28;20354;-64
2023/10/30 02:47:32;;;;;;;5.60;4.67;;;;;;;1.06;100.00;100649.56;5074753;28;20275;-63
2023/10/30 02:49:58;;;;;;;5.23;4.57;;;;;;;1.03;100.00;100644.53;5074812;28;20622;-64
2023/10/30 02:52:24;;;;;;;6.90;4.60;;;;;;;1.02;100.00;100650.72;5074678;28;20277;-66
2023/10/30 02:54:49;;;;;;;6.37;5.20;;;;;;;0.95;100.00;100646.84;5074439;28;20499;-62
2023/10/30 02:57:15;;;;;;;7.50;4.77;;;;;;;0.95;100.00;100644.22;5074220;28;20312;-61
2023/10/30 02:59:41;;;;;;;5.13;4.63;;;;;;;0.98;100.00;100638.75;5074144;28;20499;-63
2023/10/30 03:02:07;;;;;;;6.33;5.13;;;;;;;0.70;100.00;100582.13;5073038;28;20044;-65
2023/10/30 03:04:33;;;;;;;4.80;4.30;;;;;;;1.09;100.00;100647.56;5074142;28;20283;-64
2023/10/30 03:07:00;;;;;;;7.17;5.23;;;;;;;1.08;100.00;100640.66;5073982;28;20266;-64
2023/10/30 03:09:30;;;;;;;8.03;5.03;;;;;;;1.01;100.00;100625.44;5074056;28;20166;-64
2023/10/30 03:11:56;;;;;;;6.93;4.83;;;;;;;1.00;100.00;100610.66;5073847;28;20784;-64
2023/10/30 03:14:21;;;;;;;9.23;4.37;;;;;;;1.10;100.00;100622.19;5073941;28;20271;-63
2023/10/30 03:16:47;;;;;;;5.07;4.43;;;;;;;1.15;100.00;100622.69;5073966;28;20036;-64
2023/10/30 03:19:13;;;;;;;10.33;4.77;;;;;;;1.09;100.00;100612.63;5073737;28;20051;-63
2023/10/30 03:21:38;;;;;;;9.37;5.60;;;;;;;1.07;100.00;100612.75;5073453;28;20041;-64
2023/10/30 03:24:04;;;;;;;5.83;4.77;;;;;;;1.03;100.00;100599.94;5073881;28;20538;-62
2023/10/30 03:26:30;;;;;;;7.27;5.07;;;;;;;0.42;100.00;100500.13;5073860;28;20412;-66
2023/10/30 03:28:56;;;;;;;7.63;5.57;;;;;;;1.07;100.00;100615.38;5073657;28;20283;-64
2023/10/30 03:31:22;;;;;;;6.53;4.80;;;;;;;0.69;100.00;100549.81;5073709;28;20046;-63
2023/10/30 03:33:47;;;;;;;5.73;4.67;;;;;;;1.11;100.00;100608.97;5073088;28;20127;-65
2023/10/30 03:36:23;;;;;;;6.07;5.47;;;;;;;0.99;100.00;100594.06;5073333;28;20259;-64
2023/10/30 03:38:52;;;;;;;5.93;4.80;;;;;;;0.96;100.00;100593.44;5073777;28;20044;-63
2023/10/30 03:41:18;;;;;;;6.47;4.95;;;;;;;0.94;100.00;100596.19;5073719;28;20305;-65
2023/10/30 03:43:44;;;;;;;5.97;5.13;;;;;;;1.00;100.00;100597.53;5074695;28;20044;-63
2023/10/30 03:46:09;;;;;;;6.27;4.90;;;;;;;0.85;100.00;100581.91;5075519;28;20262;-66
2023/10/30 03:48:35;;;;;;;8.80;4.80;;;;;;;0.97;100.00;100589.88;5074632;28;20155;-65
2023/10/30 03:51:02;;;;;;;7.00;5.57;;;;;;;1.04;100.00;100596.38;5073664;28;20032;-67
2023/10/30 03:53:29;;;;;;;7.47;5.90;;;;;;;0.87;100.00;100564.31;5073622;28;20032;-65
2023/10/30 03:55:55;;;;;;;9.23;5.20;;;;;;;0.91;100.00;100563.16;5073336;28;20274;-64
2023/10/30 03:58:20;;;;;;;5.43;4.70;;;;;;;0.88;100.00;100557.28;5073265;28;20271;-65
2023/10/30 04:00:47;;;;;;;6.20;5.60;;;;;;;0.94;100.00;100562.09;5072890;28;20796;-64
2023/10/30 04:03:13;;;;;;;6.87;5.23;;;;;;;0.93;100.00;100561.25;5072917;28;20083;-63
2023/10/30 04:05:38;;;;;;;7.77;5.50;;;;;;;0.77;100.00;100531.78;5072878;28;20283;-64
2023/10/30 04:08:04;;;;;;;7.90;5.73;;;;;;;0.81;100.00;100542.91;5073166;28;20043;-66
2023/10/30 04:10:31;;;;;;;8.50;5.97;;;;;;;0.83;100.00;100560.19;5073276;28;20040;-63
2023/10/30 04:12:56;;;;;;;8.20;6.13;;;;;;;0.85;100.00;100560.94;5072963;28;20496;-65
2023/10/30 04:15:22;;;;;;;6.03;5.43;;;;;;;0.87;100.00;100559.06;5071631;28;20294;-63
2023/10/30 04:17:47;;;;;;;8.37;5.47;;;;;;;0.82;100.00;100553.28;5072745;28;20040;-64
2023/10/30 04:20:13;;;;;;;11.27;6.40;;;;;;;0.66;100.00;100523.00;5072630;28;20041;-64
2023/10/30 04:22:39;;;;;;;8.83;5.80;;;;;;;0.80;100.00;100535.97;5073176;28;20041;-64
2023/10/30 04:25:06;;;;;;;8.80;6.00;;;;;;;0.78;100.00;100530.00;5072862;28;20551;-65
2023/10/30 04:27:33;;;;;;;7.37;6.13;;;;;;;0.82;100.00;100534.09;5072533;28;20077;-64
2023/10/30 04:29:59;;;;;;;7.53;6.07;;;;;;;0.92;100.00;100545.63;5072415;28;20321;-63
2023/10/30 04:32:25;;;;;;;7.13;5.97;;;;;;;0.99;100.00;100540.78;5071279;28;20622;-66
2023/10/30 04:34:51;;;;;;;7.43;6.40;;;;;;;1.04;100.00;100533.44;5072498;28;20279;-66
2023/10/30 04:37:19;;;;;;;8.80;6.23;;;;;;;1.00;100.00;100538.06;5072095;28;20041;-64
2023/10/30 04:39:45;;;;;;;9.57;6.55;;;;;;;0.83;100.00;100499.91;5072311;28;20127;-65
2023/10/30 04:42:11;;;;;;;7.57;5.97;;;;;;;0.99;100.00;100523.28;5072242;28;20566;-64
2023/10/30 04:44:37;;;;;;;8.77;6.40;;;;;;;0.87;100.00;100506.63;5069764;28;20270;-65
2023/10/30 04:47:03;;;;;;;7.67;6.43;;;;;;;0.96;100.00;100520.88;5071925;28;20041;-65
2023/10/30 04:49:34;;;;;;;8.10;6.60;;;;;;;0.61;100.00;100473.53;5072473;28;20040;-64
2023/10/30 04:52:00;;;;;;;8.07;6.93;;;;;;;0.91;100.00;100521.19;5072404;28;20024;-65
2023/10/30 04:54:26;;;;;;;9.57;7.20;;;;;;;0.72;100.00;100484.09;5071905;28;20270;-64
2023/10/30 04:56:51;;;;;;;7.93;6.70;;;;;;;0.84;100.00;100514.69;5072040;28;20271;-62
2023/10/30 04:59:17;;;;;;;7.97;6.90;;;;;;;0.78;100.00;100516.91;5071634;28;20028;-64
2023/10/30 05:01:43;;;;;;;8.10;6.97;;;;;;;0.71;100.00;100516.47;5071518;28;20056;-64
2023/10/30 05:04:08;;;;;;;9.13;7.03;;;;;;;0.71;100.00;100506.00;5070189;28;20041;-65
2023/10/30 05:06:34;;;;;;;9.13;7.73;;;;;;;0.76;100.00;100501.28;5071909;28;20029;-65
2023/10/30 05:08:59;;;;;;;9.80;6.70;;;;;;;0.75;100.00;100481.25;5071813;28;20036;-64
2023/10/30 05:11:25;;;;;;;9.03;7.03;;;;;;;0.68;100.00;100473.94;5071672;28;20047;-63
2023/10/30 05:13:50;;;;;;;10.60;7.03;;;;;;;0.84;100.00;100501.56;5071595;28;20036;-62
2023/10/30 05:16:16;;;;;;;9.17;7.17;;;;;;;0.95;100.00;100513.13;5071838;28;20039;-64
2023/10/30 05:18:42;;;;;;;7.47;6.47;;;;;;;0.92;100.00;100512.38;5071386;28;20054;-64
2023/10/30 05:21:07;;;;;;;8.17;6.67;;;;;;;1.05;100.00;100522.00;5071416;28;20036;-64
2023/10/30 05:23:33;;;;;;;8.27;7.13;;;;;;;0.99;100.00;100525.91;5071459;28;20051;-64
2023/10/30 05:25:58;;;;;;;8.53;7.27;;;;;;;0.86;100.00;100525.91;5070003;28;20037;-64
2023/10/30 05:28:24;;;;;;;9.67;6.83;;;;;;;0.76;100.00;100509.13;5071304;28;20400;-63
2023/10/30 05:30:49;;;;;;;10.77;7.10;;;;;;;0.76;100.00;100511.75;5071192;28;20496;-64
2023/10/30 05:33:15;;;;;;;9.53;8.40;;;;;;;0.81;100.00;100516.69;5070391;28;20459;-64
2023/10/30 05:35:41;;;;;;;12.03;8.60;;;;;;;0.71;100.00;100508.63;5072199;28;20459;-65
2023/10/30 05:38:06;;;;;;;9.00;7.43;;;;;;;0.72;100.00;100514.69;5071237;28;20127;-65
2023/10/30 05:40:32;;;;;;;10.07;7.93;;;;;;;0.68;100.00;100506.22;5070066;28;20115;-66
2023/10/30 05:42:58;;;;;;;10.00;7.80;;;;;;;0.45;100.00;100467.66;5071238;28;20411;-63
2023/10/30 05:45:23;;;;;;;8.33;6.67;;;;;;;0.75;100.00;100504.00;5071188;28;20044;-63
2023/10/30 05:47:49;;;;;;;8.87;6.53;;;;;;;0.72;100.00;100502.44;5070879;28;20086;-64
2023/10/30 05:50:14;;;;;;;9.77;6.63;;;;;;;0.75;100.00;100502.22;5070387;28;20032;-63
2023/10/30 05:52:43;;;;;;;8.93;6.80;;;;;;;0.86;100.00;100504.91;5071384;28;20531;-65
2023/10/30 05:55:08;;;;;;;10.00;6.60;;;;;;;0.80;100.00;100492.25;5071827;28;20428;-64
2023/10/30 05:57:35;;;;;;;7.40;6.37;;;;;;;0.90;100.00;100519.53;5070785;28;20042;-64
2023/10/30 06:00:01;;;;;;;10.20;6.10;;;;;;;0.91;100.00;100521.19;5071209;28;20040;-64
2023/10/30 06:02:32;;;;;;;13.70;9.27;;;;;;;0.73;100.00;100501.50;5069846;28;20303;-65
2023/10/30 06:04:57;;;;;;;8.63;6.60;;;;;;;0.88;100.00;100478.63;5071072;28;20282;-62
2023/10/30 06:07:23;;;;;;;10.63;7.97;;;;;;;0.77;100.00;100466.25;5070945;28;20040;-66
2023/10/30 06:09:48;;;;;;;9.63;6.63;;;;;;;0.87;100.00;100484.81;5071194;28;20040;-66
2023/10/30 06:12:15;;;;;;;8.37;5.70;;;;;;;0.88;100.00;100481.25;5070782;28;20043;-64
2023/10/30 06:14:40;;;;;;;10.10;6.90;;;;;;;0.97;100.00;100485.00;5071084;28;20036;-64
2023/10/30 06:17:06;;;;;;;6.70;5.60;;;;;;;1.02;100.00;100473.22;5071300;28;20266;-66
2023/10/30 06:19:32;;;;;;;8.67;6.07;;;;;;;1.06;100.00;100484.34;5070968;28;20040;-66
2023/10/30 06:21:57;;;;;;;7.50;5.90;;;;;;;1.07;100.00;100486.00;5070832;28;20044;-64
2023/10/30 06:24:23;;;;;;;8.07;4.57;;;;;;;0.75;100.00;100417.50;5070943;28;20036;-64
2023/10/30 06:26:48;;;;;;;9.97;6.80;;;;;;;0.84;100.00;100415.06;5070641;28;20036;-64
2023/10/30 06:29:14;;;;;;;8.37;6.10;;;;;;;1.17;100.00;100463.44;5071094;28;20028;-64
2023/10/30 06:31:40;;;;;;;6.33;4.67;;;;;;;1.22;100.00;100463.94;5070846;28;20036;-63
2023/10/30 06:34:06;;;;;;;5.27;4.70;;;;;;;1.12;100.00;100461.13;5070872;28;20357;-64
2023/10/30 06:36:32;;;;;;;5.87;4.90;;;;;;;1.08;100.00;100461.47;5070956;28;20040;-66
2023/10/30 06:38:59;;;;;;;5.30;4.57;;;;;;;1.01;100.00;100447.13;5069386;28;20328;-65
2023/10/30 06:41:24;;;;;;;6.70;4.57;;;;;;;1.11;100.00;100453.38;5070456;28;20343;-63
2023/10/30 06:43:51;;;;;;;7.03;5.30;;;;;;;1.13;100.00;100459.34;5070471;28;20726;-63
2023/10/30 06:46:17;;;;;;;7.93;5.23;;;;;;;0.78;100.00;100391.91;5070705;28;20037;-65
2023/10/30 06:48:42;;;;;;;8.17;6.20;;;;;;;1.18;100.00;100431.03;5069323;28;20266;-65
2023/10/30 06:51:08;;;;;;;6.80;5.43;;;;;;;1.20;100.00;100437.84;5070734;28;20032;-63
2023/10/30 06:53:34;;;;;;;6.83;5.63;;;;;;;1.21;100.00;100438.66;5070526;28;20121;-65
2023/10/30 06:55:59;;;;;;;10.17;6.33;;;;;;;1.01;100.00;100405.16;5070201;28;20507;-64
2023/10/30 06:58:25;;;;;;;7.80;5.40;;;;;;;0.82;100.00;100376.78;5071136;28;20110;-63
2023/10/30 07:00:51;;;;;;;7.73;5.43;;;;;;;1.08;100.00;100422.13;5069050;28;20454;-65
2023/10/30 07:03:16;;;;;;;6.87;6.13;;;;;;;0.83;100.00;100374.06;5069308;28;20123;-63
2023/10/30 07:05:42;;;;;;;12.23;5.67;;;;;;;1.18;100.00;100392.53;5070885;28;20354;-63
2023/10/30 07:08:08;;;;;;;8.97;5.73;;;;;;;1.29;99.42;100396.97;5071158;28;20043;-64
2023/10/30 07:10:33;;;;;;;8.10;5.37;;;;;;;1.39;98.87;100405.84;5074009;28;20597;-65
2023/10/30 07:12:59;;;;;;;8.83;5.47;;;;;;;0.96;97.02;100331.25;5074150;28;20357;-66
2023/10/30 07:15:26;;;;;;;13.33;5.90;;;;;;;1.33;97.79;100385.28;5072785;28;20529;-64
2023/10/30 07:17:56;;;;;;;9.67;5.80;;;;;;;0.93;98.53;100306.94;5072796;28;20068;-64
2023/10/30 07:20:23;;;;;;;11.27;6.90;;;;;;;1.62;98.12;100387.56;5074060;28;20282;-64
2023/10/30 07:22:48;;;;;;;6.33;5.20;;;;;;;1.43;96.76;100362.66;5073789;28;20282;-64
2023/10/30 07:25:17;;;;;;;5.90;5.27;;;;;;;1.36;97.19;100371.94;5073689;28;20275;-64
2023/10/30 07:27:42;;;;;;;6.80;5.22;;;;;;;1.18;98.34;100366.28;5073884;28;20048;-63
2023/10/30 07:30:08;;;;;;;10.43;5.63;;;;;;;1.22;99.05;100380.00;5072427;28;20106;-65
2023/10/30 07:32:34;;;;;;;8.63;5.60;;;;;;;1.15;99.38;100358.63;5073686;28;20373;-65
2023/10/30 07:35:00;;;;;;;8.73;6.10;;;;;;;1.33;99.07;100364.31;5073448;28;20281;-63
2023/10/30 07:37:27;;;;;;;7.10;5.57;;;;;;;1.17;97.71;100340.19;5073674;28;20809;-64
2023/10/30 07:39:52;;;;;;;11.20;6.67;;;;;;;1.28;97.76;100366.44;5073244;28;20407;-64
2023/10/30 07:42:18;;;;;;;7.20;5.47;;;;;;;1.17;97.07;100351.50;5073623;28;20336;-64
2023/10/30 07:44:44;;;;;;;10.13;6.33;;;;;;;0.83;97.28;100299.81;5073490;28;20517;-65
2023/10/30 07:47:09;;;;;;;8.40;5.90;;;;;;;1.10;97.42;100333.69;5073417;28;20060;-64
2023/10/30 07:49:35;;;;;;;8.73;5.67;;;;;;;1.20;97.50;100350.44;5073479;28;20090;-64
2023/10/30 07:52:00;;;;;;;7.90;5.40;;;;;;;0.29;96.83;100206.78;5073367;28;20507;-66
2023/10/30 07:54:26;;;;;;;6.53;4.83;;;;;;;1.11;96.76;100332.72;5073308;28;20126;-64
2023/10/30 07:56:51;;;;;;;7.90;5.33;;;;;;;1.15;96.50;100332.38;5073537;28;20040;-65
2023/10/30 07:59:17;;;;;;;9.00;6.40;;;;;;;1.12;96.71;100322.13;5073373;28;20032;-64
2023/10/30 08:01:44;;;;;;;7.43;5.67;;;;;;;1.14;96.08;100324.63;5072859;28;20142;-65
2023/10/30 08:04:10;;;;;;;5.80;4.90;;;;;;;0.91;96.37;100292.25;5072289;28;20060;-66
2023/10/30 08:06:35;;;;;;;9.83;6.80;;;;;;;1.11;95.94;100320.47;5073145;28;20707;-66
2023/10/30 08:09:02;;;;;;;7.73;5.80;;;;;;;1.14;96.68;100330.72;5073105;28;20036;-65
2023/10/30 08:11:28;;;;;;;9.57;6.17;;;;;;;1.22;97.05;100324.94;5072802;28;20361;-65
2023/10/30 08:13:53;;;;;;;9.50;7.27;;;;;;;1.35;95.41;100323.06;5072964;28;20346;-65
2023/10/30 08:16:19;;;;;;;11.70;6.73;;;;;;;1.36;94.93;100326.50;5073246;28;20040;-66
2023/10/30 08:18:46;;;;;;;7.57;6.37;;;;;;;0.97;94.35;100297.03;5072909;28;20036;-65
2023/10/30 08:21:13;;;;;;;7.97;6.10;;;;;;;1.16;95.43;100346.38;5072632;28;20464;-66
2023/10/30 08:23:39;;;;;;;9.53;6.90;;;;;;;1.12;95.41;100347.53;5072765;28;20673;-68
2023/10/30 08:26:08;;;;;;;7.87;5.77;;;;;;;0.98;95.46;100324.09;5072577;28;20780;-65
2023/10/30 08:28:35;;;;;;;8.85;6.30;;;;;;;1.04;95.57;100340.22;5072777;28;20279;-65
2023/10/30 08:31:01;;;;;;;9.20;6.73;;;;;;;1.11;95.29;100341.44;5054690;28;20040;-64
2023/10/30 08:33:27;;;;;;;10.70;7.63;;;;;;;1.20;95.63;100340.78;5072487;28;20267;-64
2023/10/30 08:35:53;;;;;;;8.60;6.53;;;;;;;1.28;94.85;100337.59;5072579;28;20539;-64
2023/10/30 08:38:18;;;;;;;13.40;6.70;;;;;;;1.25;94.77;100335.19;5073057;28;20032;-66
2023/10/30 08:40:44;;;;;;;7.67;5.03;;;;;;;1.21;95.01;100325.88;5072375;28;20040;-63
2023/10/30 08:43:09;;;;;;;7.77;6.10;;;;;;;1.08;95.10;100323.31;5072615;28;20039;-65
2023/10/30 08:45:35;;;;;;;11.23;6.37;;;;;;;1.14;95.34;100314.97;5072368;28;20415;-62
2023/10/30 08:48:01;;;;;;;6.90;5.53;;;;;;;1.06;95.73;100295.53;5072082;28;20407;-65
2023/10/30 08:50:26;;;;;;;10.63;5.67;;;;;;;1.14;95.09;100306.28;5072460;28;20036;-64
2023/10/30 08:52:52;;;;;;;8.37;5.87;;;;;;;1.03;94.81;100282.66;5072031;28;20510;-67
2023/10/30 08:55:20;;;;;;;8.70;5.30;;;;;;;1.20;93.99;100303.22;5072205;28;20094;-65
2023/10/30 08:57:46;;;;;;;10.27;5.37;;;;;;;1.22;94.12;100311.81;5072638;28;20491;-63
2023/10/30 09:00:12;;;;;;;6.90;5.10;;;;;;;1.22;94.31;100311.81;5072083;28;20075;-66
2023/10/30 09:02:38;;;;;;;9.90;6.07;;;;;;;1.13;95.28;100291.50;5072329;28;20120;-66
2023/10/30 09:05:04;;;;;;;10.90;5.23;;;;;;;1.18;94.46;100297.25;5072186;28;20413;-65
2023/10/30 09:07:31;;;;;;;9.03;4.70;;;;;;;1.14;94.23;100285.28;5072601;28;20058;-66
2023/10/30 09:09:57;;;;;;;7.90;5.37;;;;;;;1.30;93.88;100301.56;5070338;28;20271;-67
2023/10/30 09:12:23;;;;;;;10.87;5.30;;;;;;;1.22;94.02;100285.59;5072201;28;20039;-64
2023/10/30 09:14:49;;;;;;;10.23;5.40;;;;;;;1.11;93.60;100256.69;5072138;28;20068;-65
2023/10/30 09:17:15;;;;;;;9.57;4.53;;;;;;;1.27;93.68;100293.94;5071854;28;20067;-63
2023/10/30 09:19:41;;;;;;;8.23;4.90;;;;;;;1.34;93.35;100300.41;5070639;28;20040;-65
2023/10/30 09:22:06;;;;;;;5.33;4.47;;;;;;;1.32;93.52;100290.97;5073089;28;20298;-64
2023/10/30 09:24:32;;;;;;;6.73;4.97;;;;;;;1.32;93.97;100289.19;5071752;28;20407;-64
2023/10/30 09:26:58;;;;;;;9.07;4.20;;;;;;;1.20;93.44;100267.34;5071596;28;20040;-64
2023/10/30 09:29:24;;;;;;;4.77;4.10;;;;;;;1.22;93.69;100254.09;5071549;28;20040;-63
2023/10/30 09:31:50;;;;;;;8.50;4.87;;;;;;;1.48;93.88;100279.22;5071030;28;20047;-68
2023/10/30 09:34:18;;;;;;;7.93;4.80;;;;;;;1.50;92.80;100258.09;5071599;28;20275;-65
2023/10/30 09:36:43;;;;;;;8.23;4.53;;;;;;;1.53;92.75;100248.19;5070252;28;20523;-65
2023/10/30 09:39:09;;;;;;;5.60;4.57;;;;;;;1.76;92.45;100263.97;5071390;28;20044;-65
2023/10/30 09:41:43;;;;;;;6.60;4.20;;;;;;;1.80;91.35;100260.16;5071600;28;20032;-64
2023/10/30 09:44:10;;;;;;;4.73;3.50;;;;;;;1.50;90.74;100226.63;5071702;28;20032;-64
2023/10/30 09:46:39;;;;;;;10.00;4.20;;;;;;;1.47;92.29;100227.69;5071896;28;20282;-64
2023/10/30 09:49:08;;;;;;;12.03;4.20;;;;;;;1.67;92.59;100249.75;5072061;28;20282;-63
2023/10/30 09:51:35;;;;;;;8.20;3.95;;;;;;;1.63;92.28;100242.25;5072392;28;20623;-65
2023/10/30 09:54:01;;;;;;;4.30;3.33;;;;;;;1.42;91.50;100213.22;5071408;28;20397;-63
2023/10/30 09:56:28;;;;;;;4.77;3.87;;;;;;;1.49;92.62;100245.94;5069955;28;20813;-63
2023/10/30 09:58:54;;;;;;;6.30;3.90;;;;;;;1.26;92.55;100208.31;5071429;28;20429;-64
2023/10/30 10:01:20;;;;;;;8.33;4.17;;;;;;;1.48;92.98;100231.16;5071690;28;20299;-65
2023/10/30 10:03:46;;;;;;;5.50;3.80;;;;;;;1.42;91.96;100213.22;5071978;28;20037;-63
2023/10/30 10:06:12;;;;;;;4.97;3.70;;;;;;;1.51;92.29;100229.13;5072163;28;20275;-65
2023/10/30 10:08:38;;;;;;;6.63;3.57;;;;;;;1.41;91.55;100199.25;5072488;28;20377;-64
2023/10/30 10:11:07;;;;;;;5.87;4.00;;;;;;;1.53;91.93;100216.72;5072197;28;20047;-66
2023/10/30 10:13:33;;;;;;;6.15;4.22;;;;;;;1.58;92.45;100212.91;5072255;28;20265;-65
2023/10/30 10:16:01;;;;;;;5.17;3.57;;;;;;;1.50;92.11;100184.63;5072756;28;20109;-64
2023/10/30 10:18:28;;;;;;;4.93;4.00;;;;;;;1.76;92.00;100211.47;5074011;28;20291;-65
2023/10/30 10:21:02;;;;;;;6.97;4.63;;;;;;;1.71;91.14;100196.06;5074862;28;20299;-64
2023/10/30 10:23:31;;;;;;;6.33;4.60;;;;;;;1.88;91.56;100210.50;5073180;28;20354;-64
2023/10/30 10:25:58;;;;;;;9.73;4.63;;;;;;;1.89;90.53;100206.91;5074120;28;20294;-64
2023/10/30 10:28:25;;;;;;;7.53;4.23;;;;;;;1.96;91.53;100194.13;5072681;28;20259;-64
2023/10/30 10:30:52;;;;;;;5.80;4.23;;;;;;;2.03;91.17;100197.97;5070786;28;20267;-65
2023/10/30 10:33:28;;;;;;;6.50;4.30;;;;;;;2.09;89.05;100214.06;5072705;28;20267;-63
2023/10/30 10:35:54;;;;;;;6.63;4.60;;;;;;;1.94;89.35;100207.38;5072573;28;20328;-65
2023/10/30 10:38:22;;;;;;;8.33;4.10;;;;;;;1.88;90.65;100220.16;5071917;28;20335;-66
2023/10/30 10:40:50;;;;;;;8.87;4.47;;;;;;;1.70;90.77;100196.19;5072723;28;21032;-65
2023/10/30 10:43:20;;;;;;;6.50;4.33;;;;;;;1.64;90.70;100207.16;5073575;28;20258;-64
2023/10/30 10:45:47;;;;;;;7.90;3.90;;;;;;;1.65;92.10;100207.03;5077326;28;20339;-65
2023/10/30 10:48:13;;;;;;;4.90;3.70;;;;;;;1.57;91.11;100182.34;5076560;28;20765;-66
2023/10/30 10:50:40;;;;;;;6.30;4.07;;;;;;;1.71;91.08;100214.44;5076313;28;20274;-66
2023/10/30 10:53:10;;;;;;;7.37;3.80;;;;;;;1.59;91.52;100186.53;5075849;28;20271;-65
2023/10/30 10:55:41;;;;;;;5.73;3.80;;;;;;;1.58;90.59;100189.28;5074983;28;20339;-65
2023/10/30 10:58:20;;;;;;;5.37;4.10;;;;;;;1.91;89.95;100205.00;5074887;28;20266;-63
2023/10/30 11:00:51;;;;;;;5.03;3.67;;;;;;;1.92;89.28;100190.09;5074985;28;20310;-66
2023/10/30 11:03:18;;;;;;;7.27;3.93;;;;;;;2.03;89.42;100185.66;5076154;28;20036;-66
2023/10/30 11:05:47;;;;;;;4.63;2.90;;;;;;;1.85;87.41;100172.19;5076195;28;20365;-65
2023/10/30 11:08:20;;;;;;;5.27;3.97;;;;;;;1.91;89.10;100189.25;5057455;28;20267;-66
2023/10/30 11:10:59;;;;;;;6.30;4.00;;;;;;;1.94;88.22;100194.25;5057802;28;20278;-64
2023/10/30 11:13:50;;;;;;;6.83;4.50;;;;;;;1.97;87.98;100194.00;5074371;28;20283;-63
2023/10/30 11:16:55;;;;;;;6.27;3.20;;;;;;;2.01;88.10;100202.47;5073634;28;20326;-67
2023/10/30 11:19:22;;;;;;;6.83;3.93;;;;;;;1.92;88.49;100192.72;5074836;28;20349;-65
2023/10/30 11:21:49;;;;;;;3.60;3.30;;;;;;;1.80;88.54;100169.09;5074476;28;20322;-66
2023/10/30 11:24:39;;;;;;;4.17;3.77;;;;;;;2.05;87.18;100201.31;5059250;28;20278;-65